Time;durP1;ratioP1;P1;durP2;ratioP2;P2;SDS_P1;SDS_P2;PMS_P1;PMS_P2;Temp;Humidity;BMP_temperature;BMP_pressure;BME280_temperature;BME280_humidity;BME280_pressure;Samples;Min_cycle;Max_cycle;Signal;HPM_P1;HPM_P2
2021/06/20 00:00:11;;;;;;;16.87;8.23;;;;;;;23.75;nan;96005.00;3518682;40;20457;-73
2021/06/20 00:02:39;;;;;;;14.10;8.20;;;;;;;23.76;nan;95998.66;3523599;40;20914;-73
2021/06/20 00:05:12;;;;;;;14.20;7.63;;;;;;;23.72;nan;96011.59;3528799;40;20469;-73
2021/06/20 00:07:41;;;;;;;20.40;7.10;;;;;;;23.64;nan;95999.25;3529185;40;20448;-74
2021/06/20 00:10:10;;;;;;;15.53;7.53;;;;;;;23.63;nan;95994.91;3528279;40;20470;-74
2021/06/20 00:12:39;;;;;;;17.00;7.23;;;;;;;23.64;nan;95985.06;3528407;40;20551;-74
2021/06/20 00:15:11;;;;;;;20.40;8.63;;;;;;;23.57;nan;95989.56;3530379;40;20477;-74
2021/06/20 00:17:39;;;;;;;18.60;7.77;;;;;;;23.59;nan;95990.16;3531072;40;21206;-74
2021/06/20 00:20:11;;;;;;;25.67;8.60;;;;;;;23.65;nan;95992.03;3531056;40;20818;-74
2021/06/20 00:22:39;;;;;;;23.30;7.73;;;;;;;23.65;nan;96000.06;3533867;40;20885;-74
2021/06/20 00:25:08;;;;;;;12.00;8.20;;;;;;;23.61;nan;95996.13;3529064;40;20582;-75
2021/06/20 00:27:36;;;;;;;15.87;7.83;;;;;;;23.64;nan;96011.78;3522676;40;20544;-74
2021/06/20 00:30:06;;;;;;;32.73;8.27;;;;;;;23.65;nan;96010.75;3530056;40;20767;-73
2021/06/20 00:32:33;;;;;;;31.07;7.93;;;;;;;23.58;nan;96015.22;3532376;40;20467;-73
2021/06/20 00:35:01;;;;;;;19.33;8.20;;;;;;;23.63;nan;96021.63;3525659;40;21214;-73
2021/06/20 00:37:31;;;;;;;31.93;8.97;;;;;;;23.55;nan;95994.28;3530929;40;20746;-73
2021/06/20 00:39:58;;;;;;;18.30;7.10;;;;;;;23.69;nan;96020.00;3530577;40;20721;-73
2021/06/20 00:42:26;;;;;;;26.93;9.57;;;;;;;23.77;nan;96019.00;3528813;40;20967;-73
2021/06/20 00:44:54;;;;;;;30.17;9.03;;;;;;;23.78;nan;96020.69;3521784;40;20559;-73
2021/06/20 00:47:23;;;;;;;28.10;8.97;;;;;;;23.81;nan;96015.72;3533612;40;20818;-73
2021/06/20 00:49:51;;;;;;;26.53;7.13;;;;;;;23.86;nan;96015.16;3524800;40;20872;-73
2021/06/20 00:52:19;;;;;;;34.80;9.47;;;;;;;23.87;nan;96009.59;3531017;40;20473;-73
2021/06/20 00:54:49;;;;;;;32.07;8.53;;;;;;;23.85;nan;96016.97;3530296;40;20776;-72
2021/06/20 00:57:19;;;;;;;35.43;8.20;;;;;;;23.83;nan;96016.34;3533175;40;20710;-74
2021/06/20 00:59:48;;;;;;;25.27;7.83;;;;;;;23.87;nan;96022.97;3523076;40;20487;-73
2021/06/20 01:02:18;;;;;;;44.03;9.57;;;;;;;23.73;nan;96018.56;3530205;40;20818;-74
2021/06/20 01:04:48;;;;;;;23.97;8.67;;;;;;;23.76;nan;96028.06;3529944;40;20833;-74
2021/06/20 01:07:18;;;;;;;24.30;8.80;;;;;;;23.74;nan;96030.91;3529711;40;21081;-75
2021/06/20 01:09:47;;;;;;;32.90;8.87;;;;;;;23.65;nan;96037.47;3532348;40;20594;-73
2021/06/20 01:12:18;;;;;;;43.40;8.70;;;;;;;23.65;nan;96040.13;3531687;40;20477;-73
2021/06/20 01:14:47;;;;;;;36.00;8.67;;;;;;;23.58;nan;96037.47;3530132;40;20858;-72
2021/06/20 01:17:15;;;;;;;42.70;9.57;;;;;;;23.56;nan;96034.16;3535325;40;20852;-72
2021/06/20 01:19:44;;;;;;;47.93;9.73;;;;;;;23.58;nan;96037.47;3528401;40;20972;-73
2021/06/20 01:22:18;;;;;;;22.13;7.73;;;;;;;23.55;nan;96031.69;3534453;40;20839;-72
2021/06/20 01:24:51;;;;;;;42.80;9.10;;;;;;;23.58;nan;96040.13;3532119;40;20837;-73
2021/06/20 01:27:19;;;;;;;29.93;8.83;;;;;;;23.58;nan;96041.97;3529982;40;20536;-73
2021/06/20 01:29:48;;;;;;;27.80;8.30;;;;;;;23.51;nan;96052.63;3531065;40;20465;-73
2021/06/20 01:32:19;;;;;;;40.10;9.80;;;;;;;23.57;nan;96069.72;3521350;40;20477;-73
2021/06/20 01:34:47;;;;;;;37.83;9.10;;;;;;;23.53;nan;96071.13;3529723;40;20488;-73
2021/06/20 01:37:18;;;;;;;35.17;8.13;;;;;;;23.45;nan;96075.63;3530891;40;20454;-73
2021/06/20 01:39:47;;;;;;;27.53;8.70;;;;;;;23.41;nan;96077.03;3528427;40;20469;-73
2021/06/20 01:42:18;;;;;;;45.93;9.87;;;;;;;23.37;nan;96081.13;3529240;40;20450;-73
2021/06/20 01:44:49;;;;;;;43.83;8.97;;;;;;;23.34;nan;96078.84;3531909;40;20828;-74
2021/06/20 01:47:17;;;;;;;26.70;8.30;;;;;;;23.26;nan;96073.69;3531760;40;20457;-74
2021/06/20 01:49:46;;;;;;;37.03;8.37;;;;;;;23.31;nan;96089.94;3531280;40;20527;-74
2021/06/20 01:52:19;;;;;;;29.60;8.23;;;;;;;23.14;nan;96078.75;3529393;40;20834;-72
2021/06/20 01:54:52;;;;;;;37.60;9.00;;;;;;;23.19;nan;96089.69;3528653;40;20465;-74
2021/06/20 01:57:22;;;;;;;49.67;9.27;;;;;;;23.21;nan;96090.31;3531811;40;20770;-73
2021/06/20 01:59:51;;;;;;;28.37;9.30;;;;;;;23.26;nan;96106.53;3529694;40;20575;-73
2021/06/20 02:02:20;;;;;;;39.50;8.27;;;;;;;23.31;nan;96100.63;3529023;40;20901;-74
2021/06/20 02:04:48;;;;;;;28.27;9.63;;;;;;;23.23;nan;96100.78;3528955;40;20470;-73
2021/06/20 02:07:16;;;;;;;41.93;8.40;;;;;;;23.26;nan;96113.75;3529168;40;20480;-74
2021/06/20 02:09:45;;;;;;;43.00;8.40;;;;;;;23.12;nan;96112.03;3521463;40;20468;-74
2021/06/20 02:12:16;;;;;;;32.13;9.77;;;;;;;22.92;nan;96131.38;3531905;40;20457;-74
2021/06/20 02:14:44;;;;;;;30.43;8.13;;;;;;;22.65;nan;96152.50;3528715;40;20465;-74
2021/06/20 02:17:23;;;;;;;45.53;9.53;;;;;;;22.55;nan;96160.00;3529480;40;20454;-74
2021/06/20 02:19:53;;;;;;;48.40;9.70;;;;;;;22.58;nan;96162.31;3525383;40;20509;-74
2021/06/20 02:22:21;;;;;;;46.10;8.90;;;;;;;22.50;nan;96183.75;3530661;40;20559;-74
2021/06/20 02:24:51;;;;;;;63.10;9.03;;;;;;;22.42;nan;96173.22;3530434;40;20456;-73
2021/06/20 02:27:19;;;;;;;41.83;9.53;;;;;;;22.43;nan;96178.34;3530167;40;20453;-73
2021/06/20 02:29:48;;;;;;;37.80;8.30;;;;;;;22.19;nan;96162.69;3529656;40;20842;-73
2021/06/20 02:32:17;;;;;;;39.53;8.73;;;;;;;22.25;nan;96167.31;3529916;40;20469;-73
2021/06/20 02:34:45;;;;;;;34.03;9.77;;;;;;;21.95;nan;96153.19;3523225;40;20940;-73
2021/06/20 02:37:15;;;;;;;46.73;10.10;;;;;;;22.16;nan;96171.88;3528649;40;20802;-74
2021/06/20 02:39:43;;;;;;;42.10;9.43;;;;;;;21.92;nan;96170.38;3528058;40;20715;-74
2021/06/20 02:42:14;;;;;;;34.30;8.67;;;;;;;22.04;nan;96170.72;3531289;40;20458;-73
2021/06/20 02:44:42;;;;;;;53.87;8.67;;;;;;;22.01;nan;96165.75;3529040;40;21164;-73
2021/06/20 02:47:11;;;;;;;27.10;8.30;;;;;;;21.79;nan;96160.38;3531071;40;20797;-73
2021/06/20 02:49:40;;;;;;;37.60;8.13;;;;;;;21.80;nan;96167.38;3529836;40;20640;-73
2021/06/20 02:52:09;;;;;;;32.03;8.73;;;;;;;21.93;nan;96121.38;3513958;40;20478;-73
2021/06/20 02:54:49;;;;;;;35.63;8.73;;;;;;;21.85;nan;96174.81;3527538;40;20462;-73
2021/06/20 02:57:19;;;;;;;34.50;8.50;;;;;;;21.83;nan;96144.84;3530969;40;20838;-73
2021/06/20 02:59:48;;;;;;;39.73;8.30;;;;;;;21.92;nan;96151.72;3529818;40;20473;-73
2021/06/20 03:02:16;;;;;;;28.80;7.10;;;;;;;21.49;nan;96148.94;3530707;40;20860;-72
2021/06/20 03:04:45;;;;;;;23.10;8.03;;;;;;;21.70;nan;96142.88;3530059;40;20474;-73
2021/06/20 03:07:13;;;;;;;37.33;8.17;;;;;;;21.77;nan;96145.59;3518460;40;20501;-73
2021/06/20 03:09:42;;;;;;;51.77;8.73;;;;;;;21.52;nan;96160.06;3530425;40;20722;-73
2021/06/20 03:12:11;;;;;;;19.50;7.50;;;;;;;21.46;nan;96159.97;3520097;40;20880;-73
2021/06/20 03:14:42;;;;;;;31.93;9.10;;;;;;;21.46;nan;96151.97;3529265;40;20775;-73
2021/06/20 03:17:13;;;;;;;28.37;9.37;;;;;;;21.60;nan;96158.28;3520105;40;20591;-73
2021/06/20 03:19:43;;;;;;;31.37;8.53;;;;;;;21.68;nan;96166.22;3531304;40;20858;-72
2021/06/20 03:22:12;;;;;;;31.80;8.10;;;;;;;21.68;nan;96179.53;3533446;40;20913;-76
2021/06/20 03:24:43;;;;;;;46.20;8.23;;;;;;;21.70;nan;96174.84;3531010;40;21064;-73
2021/06/20 03:27:11;;;;;;;34.90;8.70;;;;;;;21.67;nan;96169.88;3533324;40;20523;-73
2021/06/20 03:29:41;;;;;;;26.47;7.97;;;;;;;21.65;nan;96174.56;3528561;40;20903;-72
2021/06/20 03:32:09;;;;;;;27.70;7.43;;;;;;;21.66;nan;96181.53;3529161;40;20524;-73
2021/06/20 03:34:37;;;;;;;32.60;9.70;;;;;;;21.48;nan;96188.09;3518096;40;20547;-72
2021/06/20 03:37:06;;;;;;;35.87;9.23;;;;;;;21.48;nan;96201.41;3528885;40;20449;-73
2021/06/20 03:39:35;;;;;;;45.00;9.20;;;;;;;21.30;nan;96201.69;3530061;40;20463;-73
2021/06/20 03:42:03;;;;;;;45.50;8.87;;;;;;;21.36;nan;96186.81;3519900;40;20566;-73
2021/06/20 03:44:31;;;;;;;28.90;9.93;;;;;;;21.62;nan;96198.91;3518763;40;20462;-72
2021/06/20 03:47:01;;;;;;;43.00;7.00;;;;;;;21.50;nan;96196.72;3518213;40;20571;-72
2021/06/20 03:49:29;;;;;;;39.77;9.20;;;;;;;21.26;nan;96192.41;3531133;40;20559;-73
2021/06/20 03:51:57;;;;;;;41.37;8.00;;;;;;;21.34;nan;96188.84;3530610;40;20644;-71
2021/06/20 03:54:25;;;;;;;52.57;9.53;;;;;;;21.38;nan;96184.81;3530625;40;20571;-72
2021/06/20 03:56:54;;;;;;;35.20;8.20;;;;;;;21.62;nan;96175.75;3528600;40;20558;-72
2021/06/20 03:59:23;;;;;;;27.47;8.10;;;;;;;21.63;nan;96187.25;3527427;40;20751;-72
2021/06/20 04:01:52;;;;;;;29.53;8.30;;;;;;;21.65;nan;96179.88;3530217;40;20493;-72
2021/06/20 04:04:22;;;;;;;40.23;8.87;;;;;;;21.65;nan;96169.22;3528573;40;20857;-72
2021/06/20 04:06:50;;;;;;;33.03;9.50;;;;;;;21.58;nan;96173.63;3531006;40;20438;-73
2021/06/20 04:09:18;;;;;;;23.83;8.00;;;;;;;21.52;nan;96183.19;3532418;40;20762;-72
2021/06/20 04:11:47;;;;;;;33.30;9.37;;;;;;;21.59;nan;96162.81;3535156;40;20457;-72
2021/06/20 04:14:16;;;;;;;32.63;9.00;;;;;;;21.49;nan;96171.06;3532345;40;20721;-73
2021/06/20 04:16:44;;;;;;;27.47;7.93;;;;;;;21.65;nan;96174.56;3530640;40;20499;-72
2021/06/20 04:19:12;;;;;;;38.17;8.67;;;;;;;21.79;nan;96170.22;3528703;40;20493;-73
2021/06/20 04:21:41;;;;;;;28.97;8.87;;;;;;;22.01;nan;96171.09;3532311;40;20821;-73
2021/06/20 04:24:09;;;;;;;29.97;9.63;;;;;;;22.10;nan;96173.47;3534182;40;20506;-73
2021/06/20 04:26:37;;;;;;;32.37;8.93;;;;;;;22.14;nan;96181.91;3531902;40;20438;-75
2021/06/20 04:29:05;;;;;;;35.07;8.37;;;;;;;21.86;nan;96187.13;3533866;40;20931;-73
2021/06/20 04:31:33;;;;;;;37.73;8.90;;;;;;;21.76;nan;96176.75;3530564;40;20758;-72
2021/06/20 04:34:01;;;;;;;24.00;7.33;;;;;;;21.86;nan;96197.78;3530746;40;20485;-73
2021/06/20 04:36:30;;;;;;;50.87;9.87;;;;;;;21.60;nan;96203.56;3521654;40;20587;-75
2021/06/20 04:39:00;;;;;;;39.60;8.50;;;;;;;21.68;nan;96196.34;3528951;40;20853;-74
2021/06/20 04:41:28;;;;;;;28.50;7.40;;;;;;;21.85;nan;96194.28;3530687;40;20535;-73
2021/06/20 04:43:59;;;;;;;50.63;8.60;;;;;;;22.01;nan;96181.75;3522379;40;20532;-73
2021/06/20 04:46:29;;;;;;;29.70;9.70;;;;;;;22.20;nan;96183.81;3529358;40;20515;-73
2021/06/20 04:49:00;;;;;;;36.93;8.80;;;;;;;22.00;nan;96177.47;3530488;40;20838;-73
2021/06/20 04:51:30;;;;;;;41.47;8.13;;;;;;;22.01;nan;96171.94;3532621;40;20442;-73
2021/06/20 04:53:59;;;;;;;32.23;8.10;;;;;;;21.99;nan;96173.13;3528869;40;20798;-73
2021/06/20 04:56:27;;;;;;;33.33;7.20;;;;;;;22.26;nan;96171.63;3529329;40;20587;-74
2021/06/20 04:58:56;;;;;;;34.70;7.40;;;;;;;22.33;nan;96158.38;3529022;40;20812;-75
2021/06/20 05:01:24;;;;;;;38.87;7.50;;;;;;;22.53;nan;96150.56;3528340;40;20543;-74
2021/06/20 05:03:53;;;;;;;43.57;8.30;;;;;;;22.65;nan;96155.16;3529409;40;20548;-74
2021/06/20 05:06:21;;;;;;;35.03;7.70;;;;;;;22.50;nan;96167.75;3532010;40;20468;-74
2021/06/20 05:08:49;;;;;;;25.90;9.13;;;;;;;22.69;nan;96171.63;3523636;40;20953;-75
2021/06/20 05:11:19;;;;;;;33.73;7.80;;;;;;;22.31;nan;96177.22;3531971;40;20453;-74
2021/06/20 05:13:47;;;;;;;38.90;9.47;;;;;;;22.23;nan;96194.13;3531417;40;20499;-73
2021/06/20 05:16:15;;;;;;;44.67;8.90;;;;;;;22.16;nan;96187.88;3531491;40;20909;-74
2021/06/20 05:18:43;;;;;;;43.83;9.00;;;;;;;22.06;nan;96192.69;3531903;40;21205;-73
2021/06/20 05:21:11;;;;;;;29.57;9.27;;;;;;;22.19;nan;96203.53;3530761;40;20540;-74
2021/06/20 05:23:39;;;;;;;36.70;8.80;;;;;;;22.22;nan;96205.78;3531849;40;20755;-74
2021/06/20 05:26:07;;;;;;;31.30;8.30;;;;;;;22.28;nan;96213.06;3522571;40;20505;-75
2021/06/20 05:28:36;;;;;;;32.80;9.07;;;;;;;22.30;nan;96220.88;3532990;40;20456;-73
2021/06/20 05:31:04;;;;;;;29.80;8.27;;;;;;;22.05;nan;96226.53;3533885;40;20457;-74
2021/06/20 05:33:32;;;;;;;22.47;6.40;;;;;;;21.87;nan;96228.75;3532327;40;20551;-74
2021/06/20 05:36:00;;;;;;;25.47;6.73;;;;;;;22.13;nan;96222.94;3531642;40;21152;-74
2021/06/20 05:38:27;;;;;;;27.13;5.63;;;;;;;22.20;nan;96226.50;3511856;40;20930;-74
2021/06/20 05:40:55;;;;;;;31.40;7.10;;;;;;;22.27;nan;96221.28;3529973;40;20593;-74
2021/06/20 05:43:23;;;;;;;28.73;5.07;;;;;;;22.43;nan;96215.72;3530625;40;20819;-74
2021/06/20 05:45:53;;;;;;;35.00;5.47;;;;;;;22.75;nan;96216.22;3527155;40;20531;-73
2021/06/20 05:48:21;;;;;;;20.90;6.23;;;;;;;22.82;nan;96217.13;3529091;40;20453;-74
2021/06/20 05:50:49;;;;;;;21.27;6.63;;;;;;;22.89;nan;96220.69;3530645;40;20840;-74
2021/06/20 05:53:17;;;;;;;32.53;7.57;;;;;;;23.15;nan;96215.75;3531579;40;20568;-74
2021/06/20 05:55:45;;;;;;;27.40;6.80;;;;;;;23.42;nan;96222.13;3533130;40;20449;-74
2021/06/20 05:58:13;;;;;;;31.30;7.60;;;;;;;23.51;nan;96209.47;3528208;40;20562;-75
2021/06/20 06:00:41;;;;;;;45.47;8.07;;;;;;;23.42;nan;96216.78;3531688;40;20453;-74
2021/06/20 06:03:10;;;;;;;40.87;7.37;;;;;;;23.63;nan;96221.25;3521522;40;20707;-74
2021/06/20 06:05:38;;;;;;;28.00;7.00;;;;;;;23.88;nan;96225.09;3530634;40;20864;-75
2021/06/20 06:08:06;;;;;;;30.57;6.20;;;;;;;24.46;nan;96222.03;3530759;40;20567;-75
2021/06/20 06:10:34;;;;;;;20.70;6.13;;;;;;;24.81;nan;96203.16;3528105;40;20485;-75
2021/06/20 06:13:02;;;;;;;30.43;6.50;;;;;;;24.95;nan;96200.50;3530298;40;20860;-74
2021/06/20 06:15:31;;;;;;;24.90;5.73;;;;;;;24.57;nan;96190.38;3525675;40;20457;-72
2021/06/20 06:18:00;;;;;;;27.67;6.23;;;;;;;23.88;nan;96198.38;3530900;40;20461;-75
2021/06/20 06:20:29;;;;;;;24.23;6.00;;;;;;;24.15;nan;96209.19;3528489;40;20466;-74
2021/06/20 06:22:57;;;;;;;16.17;5.20;;;;;;;24.30;nan;96218.91;3531635;40;20446;-75
2021/06/20 06:25:25;;;;;;;26.33;6.23;;;;;;;24.70;nan;96227.91;3531431;40;20999;-75
2021/06/20 06:27:53;;;;;;;15.70;4.83;;;;;;;24.92;nan;96230.41;3528377;40;20552;-75
2021/06/20 06:30:22;;;;;;;17.63;4.33;;;;;;;25.17;nan;96225.22;3530855;40;20549;-75
2021/06/20 06:32:51;;;;;;;17.77;4.77;;;;;;;24.82;nan;96225.44;3530887;40;20450;-77
2021/06/20 06:35:19;;;;;;;18.90;4.93;;;;;;;24.26;nan;96227.31;3519983;40;20462;-74
2021/06/20 06:37:51;;;;;;;16.17;5.90;;;;;;;23.81;nan;96234.94;3530457;40;20547;-74
2021/06/20 06:40:19;;;;;;;15.63;5.00;;;;;;;24.40;nan;96222.00;3530588;40;20810;-75
2021/06/20 06:42:47;;;;;;;41.80;5.57;;;;;;;24.62;nan;96236.94;3529304;40;20563;-75
2021/06/20 06:45:17;;;;;;;16.97;4.43;;;;;;;24.71;nan;96234.88;3521805;40;20493;-74
2021/06/20 06:47:45;;;;;;;27.70;5.03;;;;;;;24.11;nan;96237.38;3532421;40;20445;-73
2021/06/20 06:50:14;;;;;;;19.00;4.50;;;;;;;24.77;nan;96250.13;3531055;40;21095;-72
2021/06/20 06:52:42;;;;;;;11.70;3.37;;;;;;;24.20;nan;96252.19;3534723;40;20763;-74
2021/06/20 06:55:13;;;;;;;21.43;4.03;;;;;;;24.80;nan;96244.38;3528795;40;20557;-73
2021/06/20 06:57:41;;;;;;;13.87;4.40;;;;;;;25.13;nan;96232.88;3529548;40;20842;-74
2021/06/20 07:00:12;;;;;;;15.90;3.80;;;;;;;25.39;nan;96245.47;3526683;40;20849;-73
2021/06/20 07:02:40;;;;;;;20.00;4.47;;;;;;;25.49;nan;96241.53;3520696;40;20861;-72
2021/06/20 07:05:10;;;;;;;18.80;4.60;;;;;;;25.78;nan;96226.84;3532861;40;20848;-73
2021/06/20 07:07:38;;;;;;;22.93;4.43;;;;;;;25.96;nan;96235.06;3531892;40;20942;-73
2021/06/20 07:10:07;;;;;;;15.17;4.40;;;;;;;26.13;nan;96238.13;3529488;40;20887;-74
2021/06/20 07:12:38;;;;;;;17.63;4.20;;;;;;;25.42;nan;96242.38;3532631;40;21197;-75
2021/06/20 07:15:07;;;;;;;20.93;3.80;;;;;;;26.13;nan;96238.13;3534503;40;20893;-74
2021/06/20 07:17:36;;;;;;;10.00;4.60;;;;;;;25.87;nan;96236.28;3531556;40;20571;-74
2021/06/20 07:20:07;;;;;;;20.03;4.00;;;;;;;26.09;nan;96225.31;3533563;40;20762;-73
2021/06/20 07:22:35;;;;;;;22.43;4.13;;;;;;;25.97;nan;96239.41;3530635;40;20460;-73
2021/06/20 07:25:04;;;;;;;15.77;3.50;;;;;;;25.95;nan;96237.97;3531310;40;20779;-73
2021/06/20 07:27:34;;;;;;;18.40;5.80;;;;;;;26.01;nan;96235.28;3524543;40;20543;-73
2021/06/20 07:30:06;;;;;;;12.53;3.60;;;;;;;26.23;nan;96226.94;3524020;40;20750;-74
2021/06/20 07:32:34;;;;;;;11.90;3.80;;;;;;;26.27;nan;96244.25;3535281;40;20962;-74
2021/06/20 07:35:02;;;;;;;14.03;4.03;;;;;;;26.27;nan;96238.06;3532696;40;20886;-75
2021/06/20 07:37:31;;;;;;;15.90;4.47;;;;;;;26.46;nan;96239.81;3532221;40;20461;-75
2021/06/20 07:39:59;;;;;;;22.57;4.20;;;;;;;25.96;nan;96240.44;3533496;40;20448;-74
2021/06/20 07:42:27;;;;;;;14.30;4.00;;;;;;;26.28;nan;96250.44;3532656;40;20473;-73
2021/06/20 07:44:55;;;;;;;14.10;4.00;;;;;;;26.39;nan;96253.28;3531795;40;20560;-73
2021/06/20 07:47:24;;;;;;;13.70;3.93;;;;;;;26.52;nan;96251.56;3523122;40;20485;-73
2021/06/20 07:49:52;;;;;;;14.90;4.17;;;;;;;26.35;nan;96235.13;3531189;40;20485;-73
2021/06/20 07:52:21;;;;;;;13.70;3.77;;;;;;;26.48;nan;96251.16;3530657;40;20790;-73
2021/06/20 07:54:52;;;;;;;14.50;3.70;;;;;;;26.65;nan;96245.34;3532865;40;20511;-73
2021/06/20 07:57:21;;;;;;;14.47;3.70;;;;;;;27.14;nan;96246.44;3531509;40;20457;-74
2021/06/20 07:59:49;;;;;;;15.10;3.73;;;;;;;27.57;nan;96253.75;3530054;40;20461;-73
2021/06/20 08:02:18;;;;;;;13.53;3.63;;;;;;;27.69;nan;96254.66;3530559;40;20465;-73
2021/06/20 08:04:48;;;;;;;12.70;3.37;;;;;;;27.83;nan;96249.97;3529651;40;20881;-74
2021/06/20 08:07:16;;;;;;;14.17;3.53;;;;;;;27.83;nan;96247.28;3519034;40;20761;-74
2021/06/20 08:09:44;;;;;;;13.67;3.70;;;;;;;27.39;nan;96241.09;3529775;40;20717;-74
2021/06/20 08:12:13;;;;;;;10.23;3.23;;;;;;;27.22;nan;96247.00;3510945;40;20828;-74
2021/06/20 08:14:41;;;;;;;9.73;3.10;;;;;;;27.09;nan;96239.06;3527037;40;20491;-74
2021/06/20 08:17:10;;;;;;;18.40;4.13;;;;;;;26.39;nan;96231.00;3529324;40;20450;-74
2021/06/20 08:19:38;;;;;;;19.03;4.00;;;;;;;26.56;nan;96232.13;3520867;40;20466;-73
2021/06/20 08:22:09;;;;;;;6.43;3.03;;;;;;;26.62;nan;96234.00;3529550;40;20457;-74
2021/06/20 08:24:37;;;;;;;10.93;3.67;;;;;;;26.79;nan;96220.03;3529719;40;20775;-73
2021/06/20 08:27:06;;;;;;;18.30;3.63;;;;;;;27.13;nan;96215.22;3529075;40;20465;-74
2021/06/20 08:29:35;;;;;;;12.97;3.63;;;;;;;26.98;nan;96211.00;3530145;40;20837;-74
2021/06/20 08:32:04;;;;;;;12.50;3.20;;;;;;;27.76;nan;96223.16;3520873;40;20473;-74
2021/06/20 08:34:33;;;;;;;18.43;4.07;;;;;;;27.99;nan;96227.91;3530470;40;21250;-74
2021/06/20 08:37:03;;;;;;;12.40;3.17;;;;;;;28.03;nan;96224.75;3532309;40;20568;-74
2021/06/20 08:39:32;;;;;;;11.10;3.60;;;;;;;27.61;nan;96228.88;3532256;40;20477;-73
2021/06/20 08:42:00;;;;;;;9.80;3.83;;;;;;;27.49;nan;96224.47;3535071;40;20520;-74
2021/06/20 08:44:31;;;;;;;16.70;4.17;;;;;;;27.51;nan;96211.63;3531387;40;20784;-74
2021/06/20 08:47:00;;;;;;;17.87;3.33;;;;;;;27.63;nan;96203.66;3525940;40;20473;-74
2021/06/20 08:49:29;;;;;;;8.47;3.67;;;;;;;27.48;nan;96217.44;3534569;40;20735;-74
2021/06/20 08:51:59;;;;;;;15.33;3.80;;;;;;;26.48;nan;96215.44;3532590;40;20442;-73
2021/06/20 08:54:28;;;;;;;14.40;3.60;;;;;;;26.56;nan;96207.97;3525944;40;20452;-73
2021/06/20 08:56:57;;;;;;;13.17;3.43;;;;;;;26.41;nan;96207.44;3530938;40;20870;-74
2021/06/20 08:59:26;;;;;;;21.00;4.33;;;;;;;25.38;nan;96205.47;3531434;40;21177;-74
2021/06/20 09:01:56;;;;;;;12.00;4.27;;;;;;;24.52;nan;96209.75;3517110;40;20552;-73
2021/06/20 09:04:27;;;;;;;19.17;5.20;;;;;;;24.83;nan;96194.94;3530947;40;20998;-74
2021/06/20 09:06:56;;;;;;;13.77;4.37;;;;;;;25.12;nan;96191.03;3530382;40;20472;-73
2021/06/20 09:09:28;;;;;;;20.40;5.07;;;;;;;24.36;nan;96199.38;3532947;40;20902;-73
2021/06/20 09:12:08;;;;;;;13.90;4.47;;;;;;;24.95;nan;96200.50;3531378;40;20828;-74
2021/06/20 09:14:45;;;;;;;16.27;5.23;;;;;;;24.28;nan;96189.66;3520439;40;20867;-73
2021/06/20 09:17:13;;;;;;;24.90;5.60;;;;;;;24.29;nan;96194.00;3530489;40;20987;-72
2021/06/20 09:19:41;;;;;;;32.43;5.10;;;;;;;24.80;nan;96190.00;3533458;40;20689;-74
2021/06/20 09:22:10;;;;;;;17.40;5.40;;;;;;;26.02;nan;96190.50;3515875;40;20470;-74
2021/06/20 09:24:40;;;;;;;20.67;5.47;;;;;;;26.46;nan;96188.00;3530515;40;20487;-75
2021/06/20 09:27:10;;;;;;;27.97;5.47;;;;;;;25.67;nan;96181.91;3530577;40;20476;-73
2021/06/20 09:29:39;;;;;;;18.40;5.13;;;;;;;25.72;nan;96176.72;3531018;40;20469;-73
2021/06/20 09:32:09;;;;;;;13.20;5.20;;;;;;;25.72;nan;96182.94;3531960;40;20442;-72
2021/06/20 09:34:44;;;;;;;21.30;5.30;;;;;;;25.06;nan;96195.38;3532429;40;20461;-74
2021/06/20 09:37:13;;;;;;;19.93;5.50;;;;;;;24.95;nan;96187.13;3533293;40;20781;-72
2021/06/20 09:39:41;;;;;;;17.87;5.47;;;;;;;25.38;nan;96178.66;3522422;40;20554;-74
2021/06/20 09:42:14;;;;;;;21.20;5.53;;;;;;;25.37;nan;96182.41;3533362;40;20897;-72
2021/06/20 09:44:44;;;;;;;24.80;5.40;;;;;;;25.57;nan;96175.13;3530982;40;20471;-73
2021/06/20 09:47:14;;;;;;;16.00;5.90;;;;;;;26.66;nan;96183.38;3533305;40;20798;-72
2021/06/20 09:49:44;;;;;;;24.03;6.17;;;;;;;26.39;nan;96186.19;3520896;40;20852;-71
2021/06/20 09:52:12;;;;;;;21.00;5.17;;;;;;;26.31;nan;96174.88;3531753;40;20438;-72
2021/06/20 09:54:44;;;;;;;34.47;5.43;;;;;;;26.53;nan;96168.13;3534429;40;20479;-71
2021/06/20 09:57:17;;;;;;;17.80;5.63;;;;;;;26.61;nan;96165.22;3531713;40;20807;-72
2021/06/20 09:59:56;;;;;;;26.83;5.90;;;;;;;26.58;nan;96170.16;3538238;40;20895;-71
2021/06/20 10:02:26;;;;;;;16.33;5.43;;;;;;;27.32;nan;96168.56;3524224;40;20499;-71
2021/06/20 10:04:54;;;;;;;24.77;6.67;;;;;;;27.48;nan;96152.91;3530301;40;20944;-71
2021/06/20 10:07:26;;;;;;;22.13;5.17;;;;;;;27.30;nan;96151.84;3524496;40;20843;-73
2021/06/20 10:09:55;;;;;;;16.40;5.90;;;;;;;25.72;nan;96145.41;3528984;40;20469;-72
2021/06/20 10:12:24;;;;;;;17.80;4.80;;;;;;;25.51;nan;96148.34;3529169;40;20780;-72
2021/06/20 10:14:54;;;;;;;15.57;4.80;;;;;;;25.69;nan;96148.50;3530923;40;20977;-72
2021/06/20 10:17:28;;;;;;;26.43;6.17;;;;;;;25.72;nan;96145.41;3529914;40;20473;-75
2021/06/20 10:19:58;;;;;;;13.30;5.47;;;;;;;26.37;nan;96142.63;3527485;40;20457;-74
2021/06/20 10:22:36;;;;;;;15.67;4.37;;;;;;;25.89;nan;96120.78;3533795;40;20464;-75
2021/06/20 10:25:07;;;;;;;14.00;4.83;;;;;;;26.03;nan;96136.63;3520024;40;20493;-72
2021/06/20 10:27:38;;;;;;;26.20;5.00;;;;;;;26.40;nan;96136.84;3529575;40;20760;-72
2021/06/20 10:30:10;;;;;;;19.10;4.00;;;;;;;25.75;nan;96134.22;3529718;40;20737;-72
2021/06/20 10:32:41;;;;;;;16.17;4.67;;;;;;;26.63;nan;96133.59;3529937;40;20528;-72
2021/06/20 10:35:15;;;;;;;17.73;4.50;;;;;;;27.31;nan;96113.19;3529077;40;20551;-72
2021/06/20 10:37:43;;;;;;;28.43;4.80;;;;;;;27.02;nan;96104.75;3529180;40;20469;-72
2021/06/20 10:40:21;;;;;;;26.83;3.93;;;;;;;26.75;nan;96104.16;3532514;40;20580;-71
2021/06/20 10:42:53;;;;;;;15.13;3.63;;;;;;;25.63;nan;96098.41;3530299;40;20461;-72
2021/06/20 10:45:31;;;;;;;17.23;3.83;;;;;;;25.90;nan;96112.53;3531512;40;20817;-73
2021/06/20 10:48:00;;;;;;;10.57;4.33;;;;;;;26.69;nan;96101.56;3529842;40;20990;-73
2021/06/20 10:50:39;;;;;;;14.30;3.70;;;;;;;26.67;nan;96104.44;3524258;40;20476;-72
2021/06/20 10:53:07;;;;;;;18.90;3.60;;;;;;;25.86;nan;96100.59;3530763;40;20844;-73
2021/06/20 10:55:40;;;;;;;19.23;4.00;;;;;;;26.88;nan;96097.88;3530585;40;20913;-72
2021/06/20 10:58:18;;;;;;;15.07;3.13;;;;;;;26.73;nan;96103.56;3528950;40;20583;-72
2021/06/20 11:00:47;;;;;;;24.87;4.60;;;;;;;26.71;nan;96094.91;3529155;40;20482;-73
2021/06/20 11:03:22;;;;;;;18.73;7.67;;;;;;;27.03;nan;96101.03;3533020;40;20531;-73
2021/06/20 11:05:52;;;;;;;16.17;3.60;;;;;;;27.32;nan;96105.94;3530896;40;20483;-73
2021/06/20 11:08:32;;;;;;;11.83;3.53;;;;;;;27.33;nan;96081.53;3532494;40;20778;-72
2021/06/20 11:11:09;;;;;;;15.30;2.90;;;;;;;27.64;nan;96081.59;3509503;40;20843;-72
2021/06/20 11:13:40;;;;;;;16.20;2.60;;;;;;;27.80;nan;96086.38;3532855;40;20453;-73
2021/06/20 11:16:09;;;;;;;8.43;2.67;;;;;;;27.70;nan;96080.72;3529911;40;21259;-73
2021/06/20 11:18:38;;;;;;;11.20;2.63;;;;;;;27.70;nan;96092.28;3530010;40;20449;-72
2021/06/20 11:21:06;;;;;;;9.13;2.87;;;;;;;27.70;nan;96067.28;3528877;40;20441;-72
2021/06/20 11:23:34;;;;;;;11.27;2.77;;;;;;;28.49;nan;96089.56;3530250;40;20497;-72
2021/06/20 11:26:04;;;;;;;12.40;3.10;;;;;;;28.37;nan;96084.16;3530486;40;20474;-72
2021/06/20 11:28:32;;;;;;;19.10;3.40;;;;;;;27.65;nan;96078.69;3532139;40;20810;-73
2021/06/20 11:31:09;;;;;;;31.43;5.23;;;;;;;27.01;nan;96068.22;3531203;40;20462;-73
2021/06/20 11:33:38;;;;;;;14.37;2.87;;;;;;;27.09;nan;96074.31;3531504;40;20876;-73
2021/06/20 11:36:06;;;;;;;18.67;2.60;;;;;;;27.47;nan;96063.41;3532878;40;20544;-72
2021/06/20 11:38:39;;;;;;;10.50;3.00;;;;;;;27.19;nan;96047.78;3531337;40;20769;-72
2021/06/20 11:41:16;;;;;;;15.67;3.20;;;;;;;27.32;nan;96047.63;3531254;40;20549;-73
2021/06/20 11:44:08;;;;;;;14.30;3.60;;;;;;;27.01;nan;96051.25;3530251;40;20445;-73
2021/06/20 11:46:38;;;;;;;30.27;4.00;;;;;;;26.75;nan;96055.03;3518027;40;20568;-73
2021/06/20 11:49:09;;;;;;;19.30;3.73;;;;;;;26.24;nan;96063.03;3510629;40;21091;-71
2021/06/20 11:51:43;;;;;;;23.57;3.20;;;;;;;26.47;nan;96055.44;3521058;40;20503;-72